KRIV/RIV METAR and TAF weather

Enter ICAO airport designator
Station Type Date Time Source
KRIV METAR 2018/12/10 08:58 UTC NOAA

KRIV 100858Z AUTO 27003KT 10SM CLR 11/06 A3015 RMK AO2 SLP204 T01060056 57014


Station Type Date Time Source
KRIV Decoded METAR 2018/12/10 08:58 UTC NOAA

Riverside / March Air Force Base, CA, United States (KRIV) 33-54N 117-15W 468M
Dec 10, 2018 - 03:58 AM EST / 2018.12.10 0858 UTC
Wind: from the W (270 degrees) at 3 MPH (3 KT):0
Visibility: 10 mile(s):0
Sky conditions: clear
Temperature: 51.1 F (10.6 C)
Dew Point: 42.1 F (5.6 C)
Relative Humidity: 71%
Pressure (altimeter): 30.15 in. Hg (1020 hPa)
Pressure tendency: 0.04 inches (1.4 hPa) lower than three hours ago
ob: KRIV 100858Z AUTO 27003KT 10SM CLR 11/06 A3015 RMK AO2 SLP204 T01060056 57014
cycle: 9

Station Type Date Time Source
KRIV TAF 2018/12/10 04:16 UTC NOAA

TAF KRIV 100403Z 1004/1110 VRB06KT 9999 SCT150 BKN200 QNH3000INS TX21/1021Z TN06/1014Z


Example: see airport list